Time,TemperatureF,DewpointF,PressureIn,WindDirection,WindDirectionDegrees,WindSpeedMPH,WindSpeedGustMPH,Humidity,HourlyPrecipIn,Conditions,Clouds,dailyrainin,SolarRadiationWatts/m^2,SoftwareType,DateUTC
2013-02-18 00:22:00,14.0,11.0,-100.00,West,262,9.0,12.0,89,0.00,,,0.00,0.000000,,2013-02-18 07:22:00,
2013-02-18 00:32:00,14.0,11.0,-100.00,West,262,9.0,12.0,89,0.00,,,0.00,0.000000,,2013-02-18 07:32:00,
2013-02-18 00:42:00,14.0,11.0,-100.00,West,262,9.0,12.0,89,0.00,,,0.00,0.000000,,2013-02-18 07:42:00,
2013-02-18 00:51:00,14.0,11.0,-100.00,West,262,9.0,12.0,89,0.00,,,0.00,0.000000,,2013-02-18 07:51:00,
2013-02-18 01:21:00,13.0,10.0,-100.00,West,267,8.0,12.0,88,0.00,,,0.00,0.000000,,2013-02-18 08:21:00,
2013-02-18 01:32:00,13.0,10.0,-100.00,West,267,8.0,12.0,88,0.00,,,0.00,0.000000,,2013-02-18 08:32:00,
2013-02-18 01:42:00,13.0,10.0,-100.00,West,267,8.0,12.0,88,0.00,,,0.00,0.000000,,2013-02-18 08:42:00,
2013-02-18 01:52:00,13.0,10.0,-100.00,West,267,8.0,12.0,88,0.00,,,0.00,0.000000,,2013-02-18 08:52:00,
2013-02-18 02:22:00,12.0,9.0,-100.00,West,269,8.0,13.0,88,0.00,,,-99.99,0.000000,,2013-02-18 09:22:00,
2013-02-18 02:32:00,12.0,9.0,-100.00,West,269,8.0,13.0,88,0.00,,,-99.99,0.000000,,2013-02-18 09:32:00,
2013-02-18 02:42:00,12.0,9.0,-100.00,West,269,8.0,13.0,88,0.00,,,-99.99,0.000000,,2013-02-18 09:42:00,
2013-02-18 02:51:00,12.0,9.0,-100.00,West,269,8.0,13.0,88,0.00,,,-99.99,0.000000,,2013-02-18 09:51:00,
2013-02-18 03:21:00,11.0,8.0,-100.00,West,264,5.0,12.0,87,0.00,,,0.00,0.000000,,2013-02-18 10:21:00,
2013-02-18 03:31:00,11.0,8.0,-100.00,West,264,5.0,12.0,87,0.00,,,0.00,0.000000,,2013-02-18 10:31:00,
2013-02-18 03:42:00,11.0,8.0,-100.00,West,264,5.0,12.0,87,0.00,,,0.00,0.000000,,2013-02-18 10:42:00,
2013-02-18 03:52:00,11.0,8.0,-100.00,West,264,5.0,12.0,87,0.00,,,0.00,0.000000,,2013-02-18 10:52:00,
2013-02-18 04:22:00,10.0,7.0,-100.00,North,350,3.0,8.0,86,0.00,,,0.00,0.000000,,2013-02-18 11:22:00,
2013-02-18 04:32:00,10.0,7.0,-100.00,North,350,3.0,8.0,86,0.00,,,0.00,0.000000,,2013-02-18 11:32:00,
2013-02-18 04:42:00,10.0,7.0,-100.00,North,350,3.0,8.0,86,0.00,,,0.00,0.000000,,2013-02-18 11:42:00,
2013-02-18 04:52:00,10.0,7.0,-100.00,North,350,3.0,8.0,86,0.00,,,0.00,0.000000,,2013-02-18 11:52:00,
2013-02-18 05:22:00,9.0,5.0,-100.00,WNW,298,4.0,6.0,85,0.00,,,0.00,0.000000,,2013-02-18 12:22:00,
2013-02-18 05:32:00,9.0,5.0,-100.00,WNW,298,4.0,6.0,85,0.00,,,0.00,0.000000,,2013-02-18 12:32:00,
2013-02-18 05:42:00,9.0,5.0,-100.00,WNW,298,4.0,6.0,85,0.00,,,0.00,0.000000,,2013-02-18 12:42:00,
2013-02-18 05:52:00,9.0,5.0,-100.00,WNW,298,4.0,6.0,85,0.00,,,0.00,0.000000,,2013-02-18 12:52:00,
2013-02-18 06:22:00,8.0,4.0,-100.00,WNW,288,7.0,9.0,85,0.00,,,0.00,0.000000,,2013-02-18 13:22:00,
2013-02-18 06:32:00,8.0,4.0,-100.00,WNW,288,7.0,9.0,85,0.00,,,0.00,0.000000,,2013-02-18 13:32:00,
2013-02-18 06:42:00,8.0,4.0,-100.00,WNW,288,7.0,9.0,85,0.00,,,0.00,0.000000,,2013-02-18 13:42:00,
2013-02-18 06:53:00,8.0,4.0,-100.00,WNW,288,7.0,9.0,85,0.00,,,0.00,0.000000,,2013-02-18 13:53:00,
2013-02-18 07:22:00,9.0,6.0,-100.00,WNW,284,7.0,14.0,86,0.00,,,0.00,1.000000,,2013-02-18 14:22:00,
2013-02-18 07:33:00,9.0,6.0,-100.00,WNW,284,7.0,14.0,86,0.00,,,0.00,1.000000,,2013-02-18 14:33:00,
2013-02-18 07:42:00,9.0,6.0,-100.00,WNW,284,7.0,14.0,86,0.00,,,0.00,1.000000,,2013-02-18 14:42:00,
2013-02-18 07:53:00,9.0,6.0,-100.00,WNW,284,7.0,14.0,86,0.00,,,0.00,1.000000,,2013-02-18 14:53:00,
2013-02-18 08:22:00,9.0,5.0,-100.00,West,270,7.0,12.0,85,0.00,,,0.00,22.000000,,2013-02-18 15:22:00,
2013-02-18 08:32:00,9.0,5.0,-100.00,West,270,7.0,12.0,85,0.00,,,0.00,22.000000,,2013-02-18 15:32:00,
2013-02-18 08:42:00,9.0,5.0,-100.00,West,270,7.0,12.0,85,0.00,,,0.00,22.000000,,2013-02-18 15:42:00,
2013-02-18 08:52:00,9.0,5.0,-100.00,West,270,7.0,12.0,85,0.00,,,0.00,22.000000,,2013-02-18 15:52:00,
2013-02-18 09:22:00,12.0,7.0,-100.00,WSW,255,8.0,12.0,81,0.00,,,0.00,204.000000,,2013-02-18 16:22:00,
2013-02-18 09:32:00,12.0,7.0,-100.00,WSW,255,8.0,12.0,81,0.00,,,0.00,204.000000,,2013-02-18 16:32:00,
2013-02-18 09:42:00,12.0,7.0,-100.00,WSW,255,8.0,12.0,81,0.00,,,0.00,204.000000,,2013-02-18 16:42:00,
2013-02-18 09:52:00,12.0,7.0,-100.00,WSW,255,8.0,12.0,81,0.00,,,0.00,204.000000,,2013-02-18 16:52:00,
2013-02-18 10:22:00,16.0,9.0,-100.00,West,260,7.0,13.0,73,0.00,,,0.00,467.000000,,2013-02-18 17:22:00,
2013-02-18 10:32:00,16.0,9.0,-100.00,West,260,7.0,13.0,73,0.00,,,0.00,467.000000,,2013-02-18 17:32:00,
2013-02-18 10:42:00,16.0,9.0,-100.00,West,260,7.0,13.0,73,0.00,,,0.00,467.000000,,2013-02-18 17:42:00,
2013-02-18 10:52:00,16.0,9.0,-100.00,West,260,7.0,13.0,73,0.00,,,0.00,467.000000,,2013-02-18 17:52:00,
2013-02-18 11:23:00,16.0,6.0,-100.00,West,269,9.0,15.0,64,0.00,,,0.00,547.000000,,2013-02-18 18:23:00,
2013-02-18 11:32:00,16.0,6.0,-100.00,West,269,9.0,15.0,64,0.00,,,0.00,547.000000,,2013-02-18 18:32:00,
2013-02-18 11:42:00,16.0,6.0,-100.00,West,269,9.0,15.0,64,0.00,,,0.00,547.000000,,2013-02-18 18:42:00,
2013-02-18 11:52:00,16.0,6.0,-100.00,West,269,9.0,15.0,64,0.00,,,0.00,547.000000,,2013-02-18 18:52:00,
2013-02-18 12:22:00,18.0,4.0,-100.00,West,272,11.0,19.0,54,0.01,,,0.01,688.000000,,2013-02-18 19:22:00,
2013-02-18 12:33:00,18.0,4.0,-100.00,West,272,11.0,19.0,54,0.01,,,0.01,688.000000,,2013-02-18 19:33:00,
2013-02-18 12:42:00,18.0,4.0,-100.00,West,272,11.0,19.0,54,0.01,,,0.01,688.000000,,2013-02-18 19:42:00,
2013-02-18 12:52:00,18.0,4.0,-100.00,West,272,11.0,19.0,54,0.01,,,0.01,688.000000,,2013-02-18 19:52:00,
2013-02-18 13:23:00,20.0,3.0,-100.00,West,269,15.0,21.0,47,0.03,,,0.04,768.000000,,2013-02-18 20:23:00,
2013-02-18 13:33:00,20.0,3.0,-100.00,West,269,15.0,21.0,47,0.03,,,0.04,768.000000,,2013-02-18 20:33:00,
2013-02-18 13:42:00,20.0,3.0,-100.00,West,269,15.0,21.0,47,0.03,,,0.04,768.000000,,2013-02-18 20:42:00,
2013-02-18 13:52:00,20.0,3.0,-100.00,West,269,15.0,21.0,47,0.03,,,0.04,768.000000,,2013-02-18 20:52:00,
2013-02-18 14:22:00,22.0,3.0,-100.00,West,271,14.0,26.0,43,0.02,,,0.06,850.000000,,2013-02-18 21:22:00,
2013-02-18 14:32:00,22.0,3.0,-100.00,West,271,14.0,26.0,43,0.02,,,0.06,850.000000,,2013-02-18 21:32:00,
2013-02-18 14:42:00,22.0,3.0,-100.00,West,271,14.0,26.0,43,0.02,,,0.06,850.000000,,2013-02-18 21:42:00,
2013-02-18 14:52:00,22.0,3.0,-100.00,West,271,14.0,26.0,43,0.02,,,0.06,850.000000,,2013-02-18 21:52:00,
2013-02-18 15:22:00,23.0,1.0,-100.00,West,266,16.0,25.0,37,0.00,,,0.06,671.000000,,2013-02-18 22:22:00,
2013-02-18 15:33:00,23.0,1.0,-100.00,West,266,16.0,25.0,37,0.00,,,0.06,671.000000,,2013-02-18 22:33:00,
2013-02-18 15:43:00,23.0,1.0,-100.00,West,266,16.0,25.0,37,0.00,,,0.06,671.000000,,2013-02-18 22:43:00,
2013-02-18 15:52:00,23.0,1.0,-100.00,West,266,16.0,25.0,37,0.00,,,0.06,671.000000,,2013-02-18 22:52:00,
2013-02-18 16:23:00,23.0,-1.0,-100.00,West,268,13.0,25.0,34,0.00,,,0.06,484.000000,,2013-02-18 23:23:00,
2013-02-18 16:33:00,23.0,-1.0,-100.00,West,268,13.0,25.0,34,0.00,,,0.06,484.000000,,2013-02-18 23:33:00,
2013-02-18 16:42:00,23.0,-1.0,-100.00,West,268,13.0,25.0,34,0.00,,,0.06,484.000000,,2013-02-18 23:42:00,
2013-02-18 16:52:00,23.0,-1.0,-100.00,West,268,13.0,25.0,34,0.00,,,0.06,484.000000,,2013-02-18 23:52:00,
2013-02-18 17:22:00,22.0,-1.0,-100.00,West,272,11.0,21.0,35,0.00,,,0.06,270.000000,,2013-02-19 00:22:00,
2013-02-18 17:34:00,22.0,-1.0,-100.00,West,272,11.0,21.0,35,0.00,,,0.06,270.000000,,2013-02-19 00:34:00,
2013-02-18 17:43:00,22.0,-1.0,-100.00,West,272,11.0,21.0,35,0.00,,,0.06,270.000000,,2013-02-19 00:43:00,
2013-02-18 17:53:00,22.0,-1.0,-100.00,West,272,11.0,21.0,35,0.00,,,0.06,270.000000,,2013-02-19 00:53:00,
2013-02-18 18:24:00,17.0,-2.0,-100.00,WNW,295,6.0,18.0,43,0.00,,,0.06,58.000000,,2013-02-19 01:24:00,
2013-02-18 18:34:00,17.0,-2.0,-100.00,WNW,295,6.0,18.0,43,0.00,,,0.06,58.000000,,2013-02-19 01:34:00,
2013-02-18 18:43:00,17.0,-2.0,-100.00,WNW,295,6.0,18.0,43,0.00,,,0.06,58.000000,,2013-02-19 01:43:00,
2013-02-18 18:53:00,17.0,-2.0,-100.00,WNW,295,6.0,18.0,43,0.00,,,0.06,58.000000,,2013-02-19 01:53:00,
2013-02-18 19:23:00,14.0,-1.0,-100.00,NE,51,3.0,6.0,50,0.00,,,0.06,1.000000,,2013-02-19 02:23:00,
2013-02-18 19:34:00,14.0,-1.0,-100.00,NE,51,3.0,6.0,50,0.00,,,0.06,1.000000,,2013-02-19 02:34:00,
2013-02-18 19:42:00,14.0,-1.0,-100.00,NE,51,3.0,6.0,50,0.00,,,0.06,1.000000,,2013-02-19 02:42:00,
2013-02-18 19:53:00,14.0,-1.0,-100.00,NE,51,3.0,6.0,50,0.00,,,0.06,1.000000,,2013-02-19 02:53:00,
2013-02-18 20:24:00,10.0,-1.0,-100.00,ENE,76,4.0,6.0,60,0.00,,,0.06,0.000000,,2013-02-19 03:24:00,
2013-02-18 20:34:00,10.0,-1.0,-100.00,ENE,76,4.0,6.0,60,0.00,,,0.06,0.000000,,2013-02-19 03:34:00,
2013-02-18 20:44:00,10.0,-1.0,-100.00,ENE,76,4.0,6.0,60,0.00,,,0.06,0.000000,,2013-02-19 03:44:00,
2013-02-18 20:53:00,10.0,-1.0,-100.00,ENE,76,4.0,6.0,60,0.00,,,0.06,0.000000,,2013-02-19 03:53:00,
2013-02-18 21:23:00,6.0,-3.0,-100.00,East,90,9.0,13.0,66,0.00,,,0.06,0.000000,,2013-02-19 04:23:00,
2013-02-18 21:33:00,6.0,-3.0,-100.00,East,90,9.0,13.0,66,0.00,,,0.06,0.000000,,2013-02-19 04:33:00,
2013-02-18 21:43:00,6.0,-3.0,-100.00,East,90,9.0,13.0,66,0.00,,,0.06,0.000000,,2013-02-19 04:43:00,
2013-02-18 21:52:00,6.0,-3.0,-100.00,East,90,9.0,13.0,66,0.00,,,0.06,0.000000,,2013-02-19 04:52:00,
2013-02-18 22:22:00,7.0,-3.0,-100.00,East,83,9.0,13.0,64,0.00,,,0.06,0.000000,,2013-02-19 05:22:00,
2013-02-18 22:32:00,7.0,-3.0,-100.00,East,83,9.0,13.0,64,0.00,,,0.06,0.000000,,2013-02-19 05:32:00,
2013-02-18 22:43:00,7.0,-3.0,-100.00,East,83,9.0,13.0,64,0.00,,,0.06,0.000000,,2013-02-19 05:43:00,
2013-02-18 22:52:00,7.0,-3.0,-100.00,East,83,9.0,13.0,64,0.00,,,0.06,0.000000,,2013-02-19 05:52:00,
2013-02-18 23:22:00,4.0,-5.0,-100.00,East,85,9.0,12.0,66,0.00,,,0.06,0.000000,,2013-02-19 06:22:00,
2013-02-18 23:32:00,4.0,-5.0,-100.00,East,85,9.0,12.0,66,0.00,,,0.06,0.000000,,2013-02-19 06:32:00,
2013-02-18 23:42:00,4.0,-5.0,-100.00,East,85,9.0,12.0,66,0.00,,,0.06,0.000000,,2013-02-19 06:42:00,
2013-02-18 23:52:00,4.0,-5.0,-100.00,East,85,9.0,12.0,66,0.00,,,0.06,0.000000,,2013-02-19 06:52:00,